createdAt,value
2019-01-15T00:02:19.253Z,2.17
2019-01-15T00:12:22.829Z,1.03
2019-01-15T00:22:26.397Z,3.47
2019-01-15T00:32:29.973Z,2.57
2019-01-15T00:42:33.621Z,2.70
2019-01-15T00:52:37.190Z,3.03
2019-01-15T01:02:40.770Z,4.63
2019-01-15T01:12:44.366Z,3.80
2019-01-15T01:22:47.937Z,2.87
2019-01-15T01:32:51.543Z,6.07
2019-01-15T01:42:55.129Z,3.63
2019-01-15T01:52:58.702Z,3.13
2019-01-15T02:03:02.283Z,4.43
2019-01-15T02:13:05.841Z,4.90
2019-01-15T02:23:09.393Z,5.77
2019-01-15T02:33:13.006Z,5.27
2019-01-15T02:43:16.574Z,5.47
2019-01-15T02:53:20.168Z,7.27
2019-01-15T03:03:23.765Z,3.40
2019-01-15T03:13:27.342Z,5.47
2019-01-15T03:23:30.942Z,3.77
2019-01-15T03:33:34.627Z,3.97
2019-01-15T03:43:38.200Z,4.07
2019-01-15T03:53:41.810Z,5.07
2019-01-15T04:03:45.493Z,2.93
2019-01-15T04:13:49.092Z,4.67
2019-01-15T04:23:52.742Z,6.27
2019-01-15T04:33:56.318Z,5.53
2019-01-15T04:43:59.911Z,4.40
2019-01-15T04:54:03.763Z,3.57
2019-01-15T05:04:07.407Z,2.70
2019-01-15T05:14:10.979Z,7.00
2019-01-15T05:24:14.570Z,2.63
2019-01-15T05:34:18.152Z,5.43
2019-01-15T05:44:21.756Z,3.93
2019-01-15T05:54:25.373Z,2.60
2019-01-15T06:04:28.971Z,3.77
2019-01-15T06:14:32.585Z,2.03
2019-01-15T06:24:36.160Z,5.63
2019-01-15T06:34:39.730Z,3.43
2019-01-15T06:44:43.327Z,2.07
2019-01-15T06:54:46.943Z,2.17
2019-01-15T07:04:50.528Z,3.77
2019-01-15T07:14:54.114Z,3.80
2019-01-15T07:24:57.693Z,3.97
2019-01-15T07:35:01.271Z,5.23
2019-01-15T07:45:06.178Z,6.13
2019-01-15T07:55:10.395Z,2.97
2019-01-15T08:05:14.902Z,6.33
2019-01-15T08:15:20.405Z,3.10
2019-01-15T08:25:23.981Z,4.80
2019-01-15T08:35:27.568Z,4.00
2019-01-15T08:45:31.133Z,5.07
2019-01-15T08:55:34.702Z,4.80
2019-01-15T09:05:38.286Z,7.03
2019-01-15T09:15:41.853Z,4.67
2019-01-15T09:25:45.433Z,4.23
2019-01-15T09:35:49.527Z,6.37
2019-01-15T09:45:53.297Z,7.97
2019-01-15T09:55:56.864Z,3.97
2019-01-15T10:06:00.447Z,3.70
2019-01-15T10:16:04.042Z,5.33
2019-01-15T10:26:07.610Z,7.77
2019-01-15T10:36:10.067Z,8.00
2019-01-15T10:46:13.637Z,8.70
2019-01-15T10:56:17.207Z,8.73
2019-01-15T11:06:20.817Z,7.13
2019-01-15T11:16:24.390Z,8.13
2019-01-15T11:26:27.975Z,6.77
2019-01-15T11:36:31.555Z,5.53
2019-01-15T11:46:35.126Z,4.23
2019-01-15T11:56:38.750Z,5.33
2019-01-15T12:07:04.219Z,6.17
2019-01-15T12:17:26.890Z,6.03
2019-01-15T12:27:55.370Z,5.07
2019-01-15T12:38:20.909Z,4.20
2019-01-15T12:48:55.950Z,3.80
2019-01-15T12:59:24.497Z,4.37
2019-01-15T13:09:50.618Z,5.03
2019-01-15T13:20:05.366Z,4.67
2019-01-15T13:30:45.806Z,4.40
2019-01-15T13:41:02.404Z,4.00
2019-01-15T13:51:46.721Z,2.17
2019-01-15T14:02:15.258Z,3.30
2019-01-15T14:12:29.942Z,3.03
2019-01-15T14:22:55.106Z,2.97
2019-01-15T14:33:13.181Z,2.97
2019-01-15T14:43:41.782Z,3.90
2019-01-15T14:53:59.910Z,3.10
2019-01-15T15:04:18.729Z,3.73
2019-01-15T15:14:48.475Z,2.50
2019-01-15T15:25:11.160Z,4.33
2019-01-15T15:35:47.546Z,2.97
2019-01-15T15:46:22.398Z,2.37
2019-01-15T15:56:43.790Z,1.70
2019-01-15T16:07:05.420Z,1.90
2019-01-15T16:17:28.090Z,1.87
2019-01-15T16:27:51.110Z,2.17
2019-01-15T16:38:12.958Z,2.63
2019-01-15T16:48:35.282Z,4.03
2019-01-15T16:58:49.055Z,3.53
2019-01-15T17:09:10.430Z,5.20
2019-01-15T17:19:30.466Z,4.90
2019-01-15T17:29:53.166Z,4.77
2019-01-15T17:40:15.838Z,4.60
2019-01-15T17:50:45.722Z,5.17
2019-01-15T18:01:14.575Z,4.87
2019-01-15T18:11:44.018Z,5.17
2019-01-15T18:21:57.426Z,3.17
2019-01-15T18:32:24.903Z,4.17
2019-01-15T18:42:50.493Z,6.80
2019-01-15T18:53:03.950Z,5.27
2019-01-15T19:03:38.459Z,4.03
2019-01-15T19:13:57.937Z,3.40
2019-01-15T19:24:19.427Z,3.87
2019-01-15T19:34:41.346Z,5.50
2019-01-15T19:44:55.481Z,5.63
2019-01-15T19:55:21.178Z,4.07
2019-01-15T20:05:51.505Z,4.43
2019-01-15T20:16:14.183Z,3.97
2019-01-15T20:26:26.170Z,2.93
2019-01-15T20:36:49.270Z,5.67
2019-01-15T20:47:25.548Z,3.07
2019-01-15T20:57:48.438Z,2.37
2019-01-15T21:08:03.826Z,3.07
2019-01-15T21:18:29.789Z,3.97
2019-01-15T21:29:01.499Z,2.70
2019-01-15T21:39:31.873Z,6.47
2019-01-15T21:50:06.946Z,11.87
2019-01-15T22:00:36.406Z,9.93
2019-01-15T22:11:01.902Z,9.43
2019-01-15T22:21:36.686Z,10.13
2019-01-15T22:32:11.466Z,8.70
2019-01-15T22:42:31.674Z,14.43
2019-01-15T22:52:57.370Z,9.80
2019-01-15T23:03:09.187Z,11.47
2019-01-15T23:13:30.757Z,17.03
2019-01-15T23:23:55.909Z,21.27
2019-01-15T23:34:18.586Z,15.03
2019-01-15T23:44:40.232Z,17.60
2019-01-15T23:55:11.999Z,17.33
